createdAt,value
2023-04-30T00:01:00.146Z,23.30
2023-04-30T00:03:01.903Z,23.30
2023-04-30T00:05:03.693Z,23.30
2023-04-30T00:07:05.309Z,23.30
2023-04-30T00:09:06.981Z,23.30
2023-04-30T00:11:08.586Z,23.30
2023-04-30T00:13:10.346Z,23.30
2023-04-30T00:15:12.258Z,23.30
2023-04-30T00:17:13.795Z,23.30
2023-04-30T00:19:15.460Z,23.30
2023-04-30T00:21:17.092Z,23.30
2023-04-30T00:23:18.701Z,23.30
2023-04-30T00:25:21.256Z,23.20
2023-04-30T00:27:22.840Z,23.20
2023-04-30T00:29:24.390Z,23.30
2023-04-30T00:31:26.110Z,23.30
2023-04-30T00:33:27.685Z,23.30
2023-04-30T00:35:29.256Z,23.30
2023-04-30T00:37:31.175Z,23.30
2023-04-30T00:39:32.769Z,23.30
2023-04-30T00:41:37.249Z,23.30
2023-04-30T00:43:38.846Z,23.30
2023-04-30T00:45:40.652Z,23.20
2023-04-30T00:47:42.248Z,23.20
2023-04-30T00:49:43.829Z,23.30
2023-04-30T00:51:45.487Z,23.20
2023-04-30T00:53:47.014Z,23.30
2023-04-30T00:55:48.611Z,23.20
2023-04-30T00:57:50.413Z,23.20
2023-04-30T00:59:52.346Z,23.20
2023-04-30T01:01:54.091Z,23.20
2023-04-30T01:03:55.963Z,23.20
2023-04-30T01:05:57.517Z,23.30
2023-04-30T01:07:59.165Z,23.20
2023-04-30T01:10:00.856Z,23.20
2023-04-30T01:12:26.286Z,23.20
2023-04-30T01:14:30.036Z,23.20
2023-04-30T01:16:35.866Z,23.20
2023-04-30T01:18:41.920Z,23.20
2023-04-30T01:20:58.388Z,23.20
2023-04-30T01:23:35.573Z,23.20
2023-04-30T01:25:40.194Z,23.20
2023-04-30T01:28:00.488Z,23.20
2023-04-30T01:30:03.632Z,23.20
2023-04-30T01:32:05.204Z,23.20
2023-04-30T01:34:06.728Z,23.30
2023-04-30T01:36:27.134Z,23.20
2023-04-30T01:38:45.116Z,23.20
2023-04-30T01:40:49.671Z,23.20
2023-04-30T01:42:54.218Z,23.20
2023-04-30T01:45:10.991Z,23.20
2023-04-30T01:47:45.083Z,23.20
2023-04-30T01:49:51.611Z,23.20
2023-04-30T01:51:56.311Z,23.20
2023-04-30T01:53:59.129Z,23.20
2023-04-30T01:56:05.987Z,23.20
2023-04-30T01:58:10.205Z,23.20
2023-04-30T02:00:12.052Z,23.20
2023-04-30T02:02:13.620Z,23.20
2023-04-30T02:04:15.203Z,23.20
2023-04-30T02:06:16.768Z,23.20
2023-04-30T02:08:18.405Z,23.20
2023-04-30T02:10:21.774Z,23.20
2023-04-30T02:12:23.377Z,23.20
2023-04-30T02:14:25.291Z,23.20
2023-04-30T02:16:26.901Z,23.20
2023-04-30T02:18:28.503Z,23.20
2023-04-30T02:20:30.094Z,23.20
2023-04-30T02:22:31.794Z,23.20
2023-04-30T02:24:33.357Z,23.20
2023-04-30T02:26:34.883Z,23.20
2023-04-30T02:28:36.428Z,23.20
2023-04-30T02:30:38.065Z,23.20
2023-04-30T02:32:39.666Z,23.20
2023-04-30T02:34:41.437Z,23.20
2023-04-30T02:36:42.958Z,23.20
2023-04-30T02:38:44.503Z,23.20
2023-04-30T02:40:46.056Z,23.20
2023-04-30T02:42:48.251Z,23.20
2023-04-30T02:44:49.831Z,23.20
2023-04-30T02:46:51.404Z,23.20
2023-04-30T02:48:53.033Z,23.10
2023-04-30T02:50:54.633Z,23.10
2023-04-30T02:52:56.354Z,23.10
2023-04-30T02:54:57.892Z,23.20
2023-04-30T02:56:59.505Z,23.20
2023-04-30T02:59:01.178Z,23.20
2023-04-30T03:01:02.784Z,23.20
2023-04-30T03:03:04.493Z,23.20
2023-04-30T03:05:06.419Z,23.10
2023-04-30T03:07:08.024Z,23.10
2023-04-30T03:09:09.561Z,23.10
2023-04-30T03:11:11.089Z,23.10
2023-04-30T03:13:12.666Z,23.10
2023-04-30T03:15:14.225Z,23.10
2023-04-30T03:17:16.572Z,23.10
2023-04-30T03:19:22.034Z,23.10
2023-04-30T03:21:23.754Z,23.10
2023-04-30T03:23:27.828Z,23.20
2023-04-30T03:25:29.356Z,23.20
2023-04-30T03:27:30.854Z,23.10
2023-04-30T03:29:32.358Z,23.10
2023-04-30T03:31:34.154Z,23.20
2023-04-30T03:33:35.792Z,23.10
2023-04-30T03:35:37.393Z,23.20
2023-04-30T03:37:38.957Z,23.10
2023-04-30T03:39:40.528Z,23.10
2023-04-30T03:41:42.093Z,23.10
2023-04-30T03:43:43.621Z,23.10
2023-04-30T03:45:45.665Z,23.10
2023-04-30T03:47:47.382Z,23.10
2023-04-30T03:49:55.178Z,23.10
2023-04-30T03:51:57.167Z,23.10
2023-04-30T03:53:58.768Z,23.10
2023-04-30T03:56:00.303Z,23.10
2023-04-30T03:58:01.987Z,23.20
2023-04-30T04:00:07.672Z,23.20
2023-04-30T04:02:09.363Z,23.20
2023-04-30T04:04:11.195Z,23.10
2023-04-30T04:06:12.771Z,23.10
2023-04-30T04:08:14.516Z,23.10
2023-04-30T04:10:16.246Z,23.10
2023-04-30T04:12:17.797Z,23.10
2023-04-30T04:14:19.426Z,23.10
2023-04-30T04:16:21.077Z,23.20
2023-04-30T04:18:22.648Z,23.10
2023-04-30T04:20:24.251Z,23.10
2023-04-30T04:22:26.089Z,23.10
2023-04-30T04:24:27.762Z,23.10
2023-04-30T04:26:29.881Z,23.10
2023-04-30T04:28:31.924Z,23.10
2023-04-30T04:30:33.955Z,23.10
2023-04-30T04:32:46.528Z,23.10
2023-04-30T04:34:49.435Z,23.10
2023-04-30T04:36:51.004Z,23.10
2023-04-30T04:38:52.744Z,23.10
2023-04-30T04:40:54.796Z,23.10
2023-04-30T04:42:56.304Z,23.10
2023-04-30T04:44:57.852Z,23.10
2023-04-30T04:46:59.435Z,23.10
2023-04-30T04:49:01.056Z,23.10
2023-04-30T04:51:02.630Z,23.10
2023-04-30T04:53:04.242Z,23.10
2023-04-30T04:55:05.972Z,23.10
2023-04-30T04:57:07.703Z,23.10
2023-04-30T04:59:09.269Z,23.10
2023-04-30T05:01:11.293Z,23.10
2023-04-30T05:03:14.334Z,23.10
2023-04-30T05:05:16.065Z,23.20
2023-04-30T05:07:17.959Z,23.20
2023-04-30T05:09:19.523Z,23.20
2023-04-30T05:11:22.082Z,23.20
2023-04-30T05:13:23.700Z,23.10
2023-04-30T05:15:25.852Z,23.20
2023-04-30T05:17:27.635Z,23.20
2023-04-30T05:19:29.263Z,23.20
2023-04-30T05:21:32.073Z,23.10
2023-04-30T05:23:33.628Z,23.20
2023-04-30T05:25:38.227Z,23.20
2023-04-30T05:27:41.049Z,23.20
2023-04-30T05:29:42.684Z,23.30
2023-04-30T05:31:44.247Z,23.30
2023-04-30T05:33:45.847Z,23.30
2023-04-30T05:35:47.447Z,23.30
2023-04-30T05:37:49.106Z,23.30
2023-04-30T05:39:50.652Z,23.30
2023-04-30T05:41:53.449Z,23.30
2023-04-30T05:43:55.385Z,23.30
2023-04-30T05:45:56.991Z,23.30
2023-04-30T05:47:58.612Z,23.30
2023-04-30T05:50:00.344Z,23.30
2023-04-30T05:52:03.469Z,23.30
2023-04-30T05:54:05.013Z,23.30
2023-04-30T05:56:06.665Z,23.30
2023-04-30T05:58:08.240Z,23.30
2023-04-30T06:00:10.150Z,23.40
2023-04-30T06:02:11.766Z,23.30
2023-04-30T06:04:13.415Z,23.30
2023-04-30T06:06:15.243Z,23.30
2023-04-30T06:08:16.946Z,23.40
2023-04-30T06:10:18.526Z,23.30
2023-04-30T06:12:20.331Z,23.30
2023-04-30T06:14:24.952Z,23.20
2023-04-30T06:16:26.619Z,23.10
2023-04-30T06:18:28.154Z,23.00
2023-04-30T06:20:29.924Z,22.90
2023-04-30T06:22:31.467Z,22.90
2023-04-30T06:24:33.049Z,23.10
2023-04-30T06:26:34.608Z,23.10
2023-04-30T06:28:36.211Z,23.20
2023-04-30T06:30:37.933Z,23.30
2023-04-30T06:32:39.569Z,23.30
2023-04-30T06:34:41.182Z,23.30
2023-04-30T06:36:42.743Z,23.30
2023-04-30T06:38:44.268Z,23.30
2023-04-30T06:40:45.833Z,23.30
2023-04-30T06:42:47.842Z,23.30
2023-04-30T06:44:49.503Z,23.40
2023-04-30T06:46:51.020Z,23.40
2023-04-30T06:48:52.595Z,23.40
2023-04-30T06:50:54.181Z,23.40
2023-04-30T06:52:55.745Z,23.50
2023-04-30T06:54:57.375Z,23.40
2023-04-30T06:56:58.917Z,23.50
2023-04-30T06:59:00.480Z,23.50
2023-04-30T07:01:02.140Z,23.50
2023-04-30T07:03:04.630Z,23.50
2023-04-30T07:05:06.705Z,23.50
2023-04-30T07:07:08.266Z,23.50
2023-04-30T07:09:10.274Z,23.50
2023-04-30T07:11:12.493Z,23.50
2023-04-30T07:13:14.082Z,23.50
2023-04-30T07:15:15.895Z,23.40
2023-04-30T07:17:17.609Z,23.50
2023-04-30T07:19:19.556Z,23.50
2023-04-30T07:21:21.826Z,23.50
2023-04-30T07:23:23.474Z,23.50
2023-04-30T07:25:24.992Z,23.50
2023-04-30T07:27:26.849Z,23.50
2023-04-30T07:29:29.292Z,23.60
2023-04-30T07:31:30.850Z,23.60
2023-04-30T07:33:32.452Z,23.60
2023-04-30T07:35:34.388Z,23.60
2023-04-30T07:37:36.308Z,23.60
2023-04-30T07:39:38.064Z,23.60
2023-04-30T07:41:39.623Z,23.40
2023-04-30T07:43:41.193Z,23.20
2023-04-30T07:45:42.962Z,23.10
2023-04-30T07:47:44.671Z,22.90
2023-04-30T07:49:47.100Z,22.80
2023-04-30T07:51:48.647Z,22.80
2023-04-30T07:53:50.326Z,22.80
2023-04-30T07:55:51.940Z,22.80
2023-04-30T07:57:53.653Z,22.80
2023-04-30T07:59:55.851Z,22.80
2023-04-30T08:01:57.857Z,22.80
2023-04-30T08:03:59.541Z,22.80
2023-04-30T08:06:01.467Z,22.80
2023-04-30T08:08:04.045Z,22.80
2023-04-30T08:10:06.086Z,22.80
2023-04-30T08:12:08.952Z,22.80
2023-04-30T08:14:10.524Z,22.80
2023-04-30T08:16:12.171Z,22.80
2023-04-30T08:18:13.771Z,22.90
2023-04-30T08:20:15.656Z,22.90
2023-04-30T08:22:17.183Z,22.90
2023-04-30T08:24:18.815Z,23.00
2023-04-30T08:26:21.102Z,23.10
2023-04-30T08:28:22.834Z,23.10
2023-04-30T08:30:24.925Z,23.20
2023-04-30T08:32:27.414Z,23.20
2023-04-30T08:34:29.042Z,23.20
2023-04-30T08:36:30.598Z,23.30
2023-04-30T08:38:32.158Z,23.30
2023-04-30T08:40:50.332Z,23.20
2023-04-30T08:43:20.362Z,23.20
2023-04-30T08:45:22.151Z,23.20
2023-04-30T08:47:24.097Z,23.20
2023-04-30T08:49:25.776Z,23.20
2023-04-30T08:51:27.607Z,23.30
2023-04-30T08:53:30.530Z,23.30
2023-04-30T08:55:33.791Z,23.30
2023-04-30T08:57:35.957Z,23.30
2023-04-30T08:59:37.533Z,23.30
2023-04-30T09:01:39.233Z,23.30
2023-04-30T09:03:41.092Z,23.30
2023-04-30T09:05:42.890Z,23.30
2023-04-30T09:08:01.228Z,23.30
2023-04-30T09:10:05.251Z,23.30
2023-04-30T09:12:19.824Z,23.30
2023-04-30T09:14:25.636Z,23.30
2023-04-30T09:16:33.005Z,23.30
2023-04-30T09:18:38.834Z,23.40
2023-04-30T09:21:03.668Z,23.30
2023-04-30T09:23:09.791Z,23.30
2023-04-30T09:25:11.635Z,23.30
2023-04-30T09:27:19.875Z,23.30
2023-04-30T09:29:21.534Z,23.30
2023-04-30T09:31:24.729Z,23.30
2023-04-30T09:33:26.396Z,23.40
2023-04-30T09:35:38.973Z,23.30
2023-04-30T09:37:41.081Z,23.40
2023-04-30T09:39:49.624Z,23.40
2023-04-30T09:41:54.184Z,23.40
2023-04-30T09:43:56.497Z,23.40
2023-04-30T09:45:58.953Z,23.40
2023-04-30T09:48:12.792Z,23.40
2023-04-30T09:50:18.450Z,23.40
2023-04-30T09:52:20.826Z,23.40
2023-04-30T09:54:25.747Z,23.40
2023-04-30T09:56:27.309Z,23.40
2023-04-30T09:58:29.336Z,23.40
2023-04-30T10:00:32.860Z,23.30
2023-04-30T10:02:34.909Z,23.30
2023-04-30T10:04:37.354Z,23.40
2023-04-30T10:06:39.469Z,23.40
2023-04-30T10:08:42.528Z,23.40
2023-04-30T10:10:46.813Z,23.40
2023-04-30T10:12:50.733Z,23.40
2023-04-30T10:14:53.230Z,23.40
2023-04-30T10:16:58.403Z,23.40
2023-04-30T10:19:03.758Z,23.40
2023-04-30T10:21:10.343Z,23.40
2023-04-30T10:23:12.594Z,23.40
2023-04-30T10:25:14.604Z,23.40
2023-04-30T10:27:16.579Z,23.40
2023-04-30T10:29:18.551Z,23.40
2023-04-30T10:31:21.046Z,23.40
2023-04-30T10:33:25.665Z,23.40
2023-04-30T10:35:30.452Z,23.50
2023-04-30T10:37:37.930Z,23.50
2023-04-30T10:39:39.602Z,23.50
2023-04-30T10:41:44.428Z,23.50
2023-04-30T10:43:47.035Z,23.50
2023-04-30T10:45:48.746Z,23.50
2023-04-30T10:47:50.459Z,23.50
2023-04-30T10:49:53.400Z,23.50
2023-04-30T10:51:56.853Z,23.50
2023-04-30T10:53:58.576Z,23.50
2023-04-30T10:56:06.347Z,23.50
2023-04-30T10:58:23.206Z,23.50
2023-04-30T11:00:25.892Z,23.50
2023-04-30T11:02:38.467Z,23.50
2023-04-30T11:04:58.591Z,23.50
2023-04-30T11:07:08.069Z,23.50
2023-04-30T11:09:09.654Z,23.50
2023-04-30T11:11:11.391Z,23.50
2023-04-30T11:13:13.925Z,23.50
2023-04-30T11:15:18.279Z,23.50
2023-04-30T11:17:23.540Z,23.50
2023-04-30T11:19:25.477Z,23.50
2023-04-30T11:21:27.608Z,23.50
2023-04-30T11:23:40.033Z,23.50
2023-04-30T11:25:47.383Z,23.50
2023-04-30T11:27:49.334Z,23.50
2023-04-30T11:29:54.426Z,23.50
2023-04-30T11:31:56.409Z,23.50
2023-04-30T11:33:58.165Z,23.50
2023-04-30T11:36:00.635Z,23.50
2023-04-30T11:38:04.078Z,23.50
2023-04-30T11:40:10.962Z,23.50
2023-04-30T11:42:16.546Z,23.50
2023-04-30T11:44:27.059Z,23.50
2023-04-30T11:46:29.410Z,23.50
2023-04-30T11:48:34.507Z,23.50
2023-04-30T11:50:42.589Z,23.50
2023-04-30T11:52:49.022Z,23.50
2023-04-30T11:54:50.595Z,23.50
2023-04-30T11:56:52.124Z,23.60
2023-04-30T11:58:55.773Z,23.60
2023-04-30T12:00:59.656Z,23.50
2023-04-30T12:03:03.680Z,23.60
2023-04-30T12:05:12.444Z,23.60
2023-04-30T12:07:14.043Z,23.60
2023-04-30T12:09:15.691Z,23.60
2023-04-30T12:11:25.766Z,23.60
2023-04-30T12:13:27.716Z,23.60
2023-04-30T12:15:29.362Z,23.60
2023-04-30T12:17:32.263Z,23.60
2023-04-30T12:19:34.434Z,23.60
2023-04-30T12:21:36.530Z,23.60
2023-04-30T12:23:38.303Z,23.60
2023-04-30T12:25:40.848Z,23.60
2023-04-30T12:27:45.153Z,23.60
2023-04-30T12:29:48.574Z,23.60
2023-04-30T12:31:51.908Z,23.60
2023-04-30T12:33:53.925Z,23.60
2023-04-30T12:35:56.673Z,23.60
2023-04-30T12:38:02.177Z,23.60
2023-04-30T12:40:03.973Z,23.60
2023-04-30T12:42:05.573Z,23.60
2023-04-30T12:44:13.762Z,23.60
2023-04-30T12:46:25.643Z,23.60
2023-04-30T12:48:27.886Z,23.60
2023-04-30T12:50:29.427Z,23.60
2023-04-30T12:52:32.518Z,23.60
2023-04-30T12:54:34.618Z,23.60
2023-04-30T12:56:36.265Z,23.60
2023-04-30T12:58:39.006Z,23.60
2023-04-30T13:00:44.434Z,23.60
2023-04-30T13:02:46.157Z,23.70
2023-04-30T13:04:49.197Z,23.70
2023-04-30T13:06:50.767Z,23.70
2023-04-30T13:08:58.585Z,23.70
2023-04-30T13:11:00.577Z,23.70
2023-04-30T13:13:02.256Z,23.70
2023-04-30T13:15:03.999Z,23.70
2023-04-30T13:17:07.295Z,23.70
2023-04-30T13:19:08.912Z,23.70
2023-04-30T13:21:10.668Z,23.70
2023-04-30T13:23:12.272Z,23.70
2023-04-30T13:25:13.874Z,23.70
2023-04-30T13:27:15.449Z,23.70
2023-04-30T13:29:17.020Z,23.70
2023-04-30T13:31:18.666Z,23.80
2023-04-30T13:33:20.814Z,23.80
2023-04-30T13:35:22.749Z,23.80
2023-04-30T13:37:24.413Z,23.70
2023-04-30T13:39:26.167Z,23.70
2023-04-30T13:41:28.072Z,23.80
2023-04-30T13:43:29.648Z,23.80
2023-04-30T13:45:31.201Z,23.80
2023-04-30T13:47:32.900Z,23.80
2023-04-30T13:49:37.288Z,23.80
2023-04-30T13:51:38.941Z,23.80
2023-04-30T13:53:40.487Z,23.80
2023-04-30T13:55:42.064Z,23.80
2023-04-30T13:57:43.723Z,23.80
2023-04-30T13:59:45.356Z,23.80
2023-04-30T14:01:47.038Z,23.80
2023-04-30T14:03:48.770Z,23.80
2023-04-30T14:05:50.794Z,23.80
2023-04-30T14:07:52.380Z,23.80
2023-04-30T14:09:53.995Z,23.80
2023-04-30T14:11:58.890Z,23.80
2023-04-30T14:14:00.464Z,23.80
2023-04-30T14:16:02.292Z,23.80
2023-04-30T14:18:03.915Z,23.80
2023-04-30T14:20:05.840Z,23.80
2023-04-30T14:22:07.418Z,23.80
2023-04-30T14:24:09.817Z,23.80
2023-04-30T14:26:11.393Z,23.70
2023-04-30T14:28:13.078Z,23.80
2023-04-30T14:30:14.800Z,23.80
2023-04-30T14:32:16.363Z,23.80
2023-04-30T14:34:18.133Z,23.80
2023-04-30T14:36:19.687Z,23.80
2023-04-30T14:38:21.266Z,23.70
2023-04-30T14:40:23.100Z,23.80
2023-04-30T14:42:24.633Z,23.80
2023-04-30T14:44:26.480Z,23.80
2023-04-30T14:46:28.277Z,23.80
2023-04-30T14:48:29.899Z,23.80
2023-04-30T14:50:31.626Z,23.90
2023-04-30T14:52:33.212Z,23.90
2023-04-30T14:54:34.822Z,23.90
2023-04-30T14:56:36.380Z,24.00
2023-04-30T14:58:38.034Z,24.00
2023-04-30T15:00:39.642Z,24.00
2023-04-30T15:02:41.320Z,23.90
2023-04-30T15:04:45.970Z,24.00
2023-04-30T15:06:47.796Z,24.00
2023-04-30T15:08:49.944Z,24.00
2023-04-30T15:10:51.521Z,24.00
2023-04-30T15:12:53.814Z,24.00
2023-04-30T15:14:55.421Z,24.00
2023-04-30T15:16:56.995Z,24.00
2023-04-30T15:18:59.220Z,24.00
2023-04-30T15:21:02.060Z,24.00
2023-04-30T15:23:03.705Z,24.10
2023-04-30T15:25:06.748Z,24.00
2023-04-30T15:27:08.328Z,24.00
2023-04-30T15:29:10.462Z,24.00
2023-04-30T15:31:12.086Z,24.10
2023-04-30T15:33:13.674Z,24.10
2023-04-30T15:35:15.414Z,24.10
2023-04-30T15:37:16.921Z,24.10
2023-04-30T15:39:19.023Z,24.10
2023-04-30T15:41:21.635Z,24.10
2023-04-30T15:43:23.276Z,24.10
2023-04-30T15:45:25.331Z,24.10
2023-04-30T15:47:26.977Z,24.20
2023-04-30T15:49:28.683Z,24.20
2023-04-30T15:51:30.848Z,24.20
2023-04-30T15:53:32.471Z,24.10
2023-04-30T15:55:34.043Z,24.20
2023-04-30T15:57:35.582Z,24.20
2023-04-30T15:59:37.109Z,24.20
2023-04-30T16:01:38.697Z,24.10
2023-04-30T16:03:40.606Z,24.20
2023-04-30T16:05:42.610Z,24.10
2023-04-30T16:07:45.537Z,24.00
2023-04-30T16:09:49.072Z,24.00
2023-04-30T16:11:50.802Z,24.00
2023-04-30T16:13:52.876Z,24.00
2023-04-30T16:15:54.552Z,24.00
2023-04-30T16:17:56.693Z,24.00
2023-04-30T16:19:58.974Z,24.00
2023-04-30T16:22:00.694Z,23.90
2023-04-30T16:24:02.297Z,23.80
2023-04-30T16:26:03.885Z,23.80
2023-04-30T16:28:05.520Z,23.80
2023-04-30T16:30:07.481Z,23.90
2023-04-30T16:32:09.417Z,23.90
2023-04-30T16:34:12.135Z,23.90
2023-04-30T16:36:13.737Z,23.80
2023-04-30T16:38:15.325Z,23.80
2023-04-30T16:40:17.288Z,23.80
2023-04-30T16:42:18.854Z,23.90
2023-04-30T16:44:21.769Z,24.00
2023-04-30T16:46:23.439Z,24.10
2023-04-30T16:48:25.085Z,24.20
2023-04-30T16:50:26.952Z,24.20
2023-04-30T16:52:29.569Z,24.20
2023-04-30T16:54:31.164Z,24.20
2023-04-30T16:56:32.719Z,24.20
2023-04-30T16:58:34.693Z,24.10
2023-04-30T17:00:36.631Z,24.10
2023-04-30T17:02:40.246Z,24.10
2023-04-30T17:04:42.099Z,24.10
2023-04-30T17:06:43.850Z,24.10
2023-04-30T17:08:45.447Z,24.10
2023-04-30T17:10:47.656Z,24.10
2023-04-30T17:12:49.322Z,24.10
2023-04-30T17:14:52.186Z,24.10
2023-04-30T17:16:53.917Z,24.10
2023-04-30T17:18:55.592Z,24.20
2023-04-30T17:20:57.350Z,24.10
2023-04-30T17:22:59.124Z,24.10
2023-04-30T17:25:02.112Z,24.10
2023-04-30T17:27:05.491Z,24.10
2023-04-30T17:29:07.286Z,24.10
2023-04-30T17:31:09.276Z,24.10
2023-04-30T17:33:10.920Z,24.10
2023-04-30T17:35:12.549Z,24.10
2023-04-30T17:37:14.126Z,24.10
2023-04-30T17:39:16.260Z,24.10
2023-04-30T17:41:18.411Z,24.10
2023-04-30T17:43:19.965Z,24.10
2023-04-30T17:45:21.769Z,24.10
2023-04-30T17:47:23.511Z,24.10
2023-04-30T17:49:25.741Z,24.00
2023-04-30T17:51:29.108Z,24.10
2023-04-30T17:53:30.671Z,24.10
2023-04-30T17:55:32.733Z,24.10
2023-04-30T17:57:34.638Z,24.10
2023-04-30T17:59:38.459Z,24.10
2023-04-30T18:01:40.367Z,24.10
2023-04-30T18:03:42.730Z,24.10
2023-04-30T18:05:45.120Z,24.10
2023-04-30T18:07:47.562Z,24.10
2023-04-30T18:09:49.171Z,24.10
2023-04-30T18:11:51.511Z,24.10
2023-04-30T18:13:53.098Z,24.10
2023-04-30T18:15:54.768Z,24.10
2023-04-30T18:17:56.742Z,24.10
2023-04-30T18:19:58.631Z,24.10
2023-04-30T18:22:00.448Z,24.10
2023-04-30T18:24:02.687Z,24.10
2023-04-30T18:26:04.753Z,24.10
2023-04-30T18:28:07.945Z,24.10
2023-04-30T18:30:11.452Z,24.10
2023-04-30T18:32:13.343Z,24.10
2023-04-30T18:34:15.606Z,24.10
2023-04-30T18:36:17.290Z,24.00
2023-04-30T18:38:18.996Z,24.00
2023-04-30T18:40:20.792Z,23.90
2023-04-30T18:42:24.586Z,23.80
2023-04-30T18:44:34.289Z,23.80
2023-04-30T18:46:36.123Z,23.80
2023-04-30T18:48:38.210Z,23.90
2023-04-30T18:50:41.761Z,23.90
2023-04-30T18:52:45.105Z,23.90
2023-04-30T18:54:46.786Z,23.90
2023-04-30T18:56:48.736Z,23.90
2023-04-30T18:58:50.444Z,23.90
2023-04-30T19:00:52.375Z,23.90
2023-04-30T19:02:54.189Z,23.80
2023-04-30T19:04:55.883Z,23.80
2023-04-30T19:06:57.610Z,23.90
2023-04-30T19:09:00.004Z,23.90
2023-04-30T19:11:01.651Z,23.80
2023-04-30T19:13:03.951Z,23.80
2023-04-30T19:15:07.919Z,23.80
2023-04-30T19:17:09.714Z,23.80
2023-04-30T19:19:11.435Z,23.80
2023-04-30T19:21:14.814Z,23.80
2023-04-30T19:23:16.525Z,23.80
2023-04-30T19:25:18.273Z,23.80
2023-04-30T19:27:20.149Z,23.80
2023-04-30T19:29:21.987Z,23.70
2023-04-30T19:31:23.784Z,23.60
2023-04-30T19:33:25.701Z,23.60
2023-04-30T19:35:27.502Z,23.50
2023-04-30T19:37:29.142Z,23.50
2023-04-30T19:39:31.750Z,23.60
2023-04-30T19:41:33.385Z,23.60
2023-04-30T19:43:35.050Z,23.60
2023-04-30T19:45:36.884Z,23.70
2023-04-30T19:47:38.650Z,23.60
2023-04-30T19:49:40.330Z,23.60
2023-04-30T19:51:42.011Z,23.60
2023-04-30T19:53:43.687Z,23.60
2023-04-30T19:55:46.001Z,23.70
2023-04-30T19:57:47.728Z,23.60
2023-04-30T19:59:49.348Z,23.60
2023-04-30T20:01:52.418Z,23.60
2023-04-30T20:03:54.245Z,23.60
2023-04-30T20:05:56.197Z,23.60
2023-04-30T20:07:58.689Z,23.60
2023-04-30T20:10:00.297Z,23.60
2023-04-30T20:12:03.572Z,23.60
2023-04-30T20:14:05.344Z,23.70
2023-04-30T20:16:09.771Z,23.70
2023-04-30T20:18:12.431Z,23.70
2023-04-30T20:20:14.386Z,23.70
2023-04-30T20:22:16.044Z,23.60
2023-04-30T20:24:18.068Z,23.60
2023-04-30T20:26:21.473Z,23.60
2023-04-30T20:28:23.165Z,23.70
2023-04-30T20:30:24.773Z,23.60
2023-04-30T20:32:26.483Z,23.70
2023-04-30T20:34:28.270Z,23.70
2023-04-30T20:36:32.229Z,23.60
2023-04-30T20:38:33.905Z,23.60
2023-04-30T20:40:35.608Z,23.60
2023-04-30T20:42:38.703Z,23.60
2023-04-30T20:44:40.592Z,23.70
2023-04-30T20:46:43.092Z,23.70
2023-04-30T20:48:44.715Z,23.60
2023-04-30T20:50:46.889Z,23.60
2023-04-30T20:52:48.657Z,23.60
2023-04-30T20:54:50.666Z,23.70
2023-04-30T20:56:52.360Z,23.70
2023-04-30T20:58:54.537Z,23.60
2023-04-30T21:00:56.676Z,23.60
2023-04-30T21:02:58.614Z,23.60
2023-04-30T21:05:04.312Z,23.60
2023-04-30T21:07:06.028Z,23.60
2023-04-30T21:09:07.711Z,23.60
2023-04-30T21:11:09.491Z,23.60
2023-04-30T21:13:12.767Z,23.60
2023-04-30T21:15:14.526Z,23.60
2023-04-30T21:17:16.188Z,23.60
2023-04-30T21:19:17.874Z,23.60
2023-04-30T21:21:19.790Z,23.60
2023-04-30T21:23:21.442Z,23.70
2023-04-30T21:25:23.146Z,23.60
2023-04-30T21:27:24.744Z,23.70
2023-04-30T21:29:26.443Z,23.70
2023-04-30T21:31:28.323Z,23.70
2023-04-30T21:33:31.064Z,23.60
2023-04-30T21:35:33.028Z,23.60
2023-04-30T21:37:34.938Z,23.70
2023-04-30T21:39:36.556Z,23.70
2023-04-30T21:41:38.243Z,23.70
2023-04-30T21:43:41.398Z,23.60
2023-04-30T21:45:43.621Z,23.70
2023-04-30T21:47:47.514Z,23.60
2023-04-30T21:49:49.225Z,23.60
2023-04-30T21:51:50.882Z,23.70
2023-04-30T21:53:52.564Z,23.60
2023-04-30T21:55:54.247Z,23.60
2023-04-30T21:57:55.931Z,23.60
2023-04-30T21:59:59.857Z,23.60
2023-04-30T22:02:07.331Z,23.60
2023-04-30T22:04:16.138Z,23.60
2023-04-30T22:06:17.820Z,23.60
2023-04-30T22:08:19.453Z,23.60
2023-04-30T22:10:21.043Z,23.60
2023-04-30T22:12:24.952Z,23.60
2023-04-30T22:14:26.859Z,23.60
2023-04-30T22:16:29.172Z,23.60
2023-04-30T22:18:31.063Z,23.60
2023-04-30T22:20:33.009Z,23.60
2023-04-30T22:22:34.690Z,23.60
2023-04-30T22:24:36.354Z,23.60
2023-04-30T22:26:38.007Z,23.60
2023-04-30T22:28:39.750Z,23.60
2023-04-30T22:30:41.431Z,23.60
2023-04-30T22:32:43.130Z,23.60
2023-04-30T22:34:45.097Z,23.50
2023-04-30T22:36:46.702Z,23.60
2023-04-30T22:38:48.279Z,23.60
2023-04-30T22:40:49.889Z,23.60
2023-04-30T22:42:51.974Z,23.60
2023-04-30T22:44:54.230Z,23.50
2023-04-30T22:46:57.953Z,23.60
2023-04-30T22:49:00.255Z,23.50
2023-04-30T22:51:01.856Z,23.50
2023-04-30T22:53:03.601Z,23.50
2023-04-30T22:55:05.486Z,23.60
2023-04-30T22:57:07.033Z,23.50
2023-04-30T22:59:08.954Z,23.50
2023-04-30T23:01:10.613Z,23.50
2023-04-30T23:03:12.240Z,23.50
2023-04-30T23:05:13.810Z,23.50
2023-04-30T23:07:16.083Z,23.50
2023-04-30T23:09:17.670Z,23.50
2023-04-30T23:11:20.546Z,23.60
2023-04-30T23:13:22.817Z,23.50
2023-04-30T23:15:24.934Z,23.50
2023-04-30T23:17:26.927Z,23.50
2023-04-30T23:19:28.652Z,23.50
2023-04-30T23:21:31.117Z,23.50
2023-04-30T23:23:33.367Z,23.50
2023-04-30T23:25:34.905Z,23.50
2023-04-30T23:27:36.466Z,23.50
2023-04-30T23:29:38.108Z,23.50
2023-04-30T23:31:39.983Z,23.50
2023-04-30T23:33:41.514Z,23.50
2023-04-30T23:35:43.715Z,23.50
2023-04-30T23:37:45.639Z,23.50
2023-04-30T23:39:47.200Z,23.50
2023-04-30T23:41:48.770Z,23.50
2023-04-30T23:43:51.011Z,23.50
2023-04-30T23:45:52.668Z,23.50
2023-04-30T23:47:54.231Z,23.50
2023-04-30T23:49:56.502Z,23.50
2023-04-30T23:51:58.250Z,23.50
2023-04-30T23:53:59.829Z,23.50
2023-04-30T23:56:01.717Z,23.50
2023-04-30T23:58:03.828Z,23.50
